sensor_id;sensor_type;location;lat;lon;timestamp;P1;durP1;ratioP1;P2;durP2;ratioP2
70832;SDS011;58452;59.418;17.962;2022-12-18T00:00:42;22.65;;;13.23;;
70832;SDS011;58452;59.418;17.962;2022-12-18T00:03:08;20.73;;;13.55;;
70832;SDS011;58452;59.418;17.962;2022-12-18T00:05:34;25.63;;;12.57;;
70832;SDS011;58452;59.418;17.962;2022-12-18T00:08:00;23.48;;;13.57;;
70832;SDS011;58452;59.418;17.962;2022-12-18T00:10:25;23.98;;;12.90;;
70832;SDS011;58452;59.418;17.962;2022-12-18T00:12:52;20.85;;;12.63;;
70832;SDS011;58452;59.418;17.962;2022-12-18T00:15:18;23.92;;;12.10;;
70832;SDS011;58452;59.418;17.962;2022-12-18T00:17:43;23.90;;;11.93;;
70832;SDS011;58452;59.418;17.962;2022-12-18T00:20:09;24.80;;;14.00;;
70832;SDS011;58452;59.418;17.962;2022-12-18T00:22:35;25.38;;;12.00;;
70832;SDS011;58452;59.418;17.962;2022-12-18T00:25:00;25.52;;;12.70;;
70832;SDS011;58452;59.418;17.962;2022-12-18T00:27:25;26.35;;;12.70;;
70832;SDS011;58452;59.418;17.962;2022-12-18T00:29:51;22.55;;;13.45;;
70832;SDS011;58452;59.418;17.962;2022-12-18T00:32:16;23.17;;;14.00;;
70832;SDS011;58452;59.418;17.962;2022-12-18T00:34:42;23.80;;;11.88;;
70832;SDS011;58452;59.418;17.962;2022-12-18T00:37:08;23.02;;;12.65;;
70832;SDS011;58452;59.418;17.962;2022-12-18T00:39:34;23.63;;;14.20;;
70832;SDS011;58452;59.418;17.962;2022-12-18T00:41:59;29.33;;;11.88;;
70832;SDS011;58452;59.418;17.962;2022-12-18T00:44:43;20.65;;;10.90;;
70832;SDS011;58452;59.418;17.962;2022-12-18T00:47:09;21.45;;;12.50;;
70832;SDS011;58452;59.418;17.962;2022-12-18T00:49:34;25.67;;;15.05;;
70832;SDS011;58452;59.418;17.962;2022-12-18T00:52:00;21.00;;;12.65;;
70832;SDS011;58452;59.418;17.962;2022-12-18T00:54:25;25.52;;;13.00;;
70832;SDS011;58452;59.418;17.962;2022-12-18T00:56:51;26.02;;;12.15;;
70832;SDS011;58452;59.418;17.962;2022-12-18T00:59:17;27.45;;;13.38;;
70832;SDS011;58452;59.418;17.962;2022-12-18T01:01:43;22.65;;;12.75;;
70832;SDS011;58452;59.418;17.962;2022-12-18T01:04:09;24.63;;;12.63;;
70832;SDS011;58452;59.418;17.962;2022-12-18T01:06:35;21.67;;;13.90;;
70832;SDS011;58452;59.418;17.962;2022-12-18T01:09:00;24.30;;;13.68;;
70832;SDS011;58452;59.418;17.962;2022-12-18T01:11:25;21.70;;;12.98;;
70832;SDS011;58452;59.418;17.962;2022-12-18T01:13:52;20.75;;;11.55;;
70832;SDS011;58452;59.418;17.962;2022-12-18T01:16:18;21.95;;;13.32;;
70832;SDS011;58452;59.418;17.962;2022-12-18T01:18:44;26.38;;;13.93;;
70832;SDS011;58452;59.418;17.962;2022-12-18T01:21:11;22.45;;;12.60;;
70832;SDS011;58452;59.418;17.962;2022-12-18T01:23:38;24.27;;;12.38;;
70832;SDS011;58452;59.418;17.962;2022-12-18T01:26:07;23.08;;;12.20;;
70832;SDS011;58452;59.418;17.962;2022-12-18T01:28:35;22.23;;;13.10;;
70832;SDS011;58452;59.418;17.962;2022-12-18T01:33:57;24.80;;;14.17;;
70832;SDS011;58452;59.418;17.962;2022-12-18T01:36:23;22.80;;;11.98;;
70832;SDS011;58452;59.418;17.962;2022-12-18T01:38:52;20.30;;;10.65;;
70832;SDS011;58452;59.418;17.962;2022-12-18T01:41:19;21.50;;;12.88;;
70832;SDS011;58452;59.418;17.962;2022-12-18T01:43:51;23.98;;;11.70;;
70832;SDS011;58452;59.418;17.962;2022-12-18T01:46:19;23.38;;;10.60;;
70832;SDS011;58452;59.418;17.962;2022-12-18T01:48:47;19.50;;;10.95;;
70832;SDS011;58452;59.418;17.962;2022-12-18T01:51:15;19.95;;;11.30;;
70832;SDS011;58452;59.418;17.962;2022-12-18T01:53:42;23.42;;;11.95;;
70832;SDS011;58452;59.418;17.962;2022-12-18T01:56:11;19.20;;;11.00;;
70832;SDS011;58452;59.418;17.962;2022-12-18T02:01:30;22.52;;;11.43;;
70832;SDS011;58452;59.418;17.962;2022-12-18T02:04:13;19.98;;;11.18;;
70832;SDS011;58452;59.418;17.962;2022-12-18T02:06:45;21.25;;;12.18;;
70832;SDS011;58452;59.418;17.962;2022-12-18T02:09:18;20.55;;;11.25;;
70832;SDS011;58452;59.418;17.962;2022-12-18T02:12:33;20.67;;;10.43;;
70832;SDS011;58452;59.418;17.962;2022-12-18T02:15:06;19.63;;;10.88;;
70832;SDS011;58452;59.418;17.962;2022-12-18T02:17:47;22.00;;;11.68;;
70832;SDS011;58452;59.418;17.962;2022-12-18T02:20:24;19.08;;;11.63;;
70832;SDS011;58452;59.418;17.962;2022-12-18T02:23:06;22.80;;;12.60;;
70832;SDS011;58452;59.418;17.962;2022-12-18T02:28:11;23.80;;;11.85;;
70832;SDS011;58452;59.418;17.962;2022-12-18T02:30:40;23.23;;;11.68;;
70832;SDS011;58452;59.418;17.962;2022-12-18T02:33:07;19.48;;;10.45;;
70832;SDS011;58452;59.418;17.962;2022-12-18T02:35:37;26.35;;;13.32;;
70832;SDS011;58452;59.418;17.962;2022-12-18T02:38:05;22.20;;;10.85;;
70832;SDS011;58452;59.418;17.962;2022-12-18T02:40:31;24.50;;;11.20;;
70832;SDS011;58452;59.418;17.962;2022-12-18T02:43:07;19.15;;;11.10;;
70832;SDS011;58452;59.418;17.962;2022-12-18T02:45:47;22.08;;;11.98;;
70832;SDS011;58452;59.418;17.962;2022-12-18T02:48:31;26.48;;;10.90;;
70832;SDS011;58452;59.418;17.962;2022-12-18T02:51:13;18.30;;;11.02;;
70832;SDS011;58452;59.418;17.962;2022-12-18T02:53:45;16.00;;;12.13;;
70832;SDS011;58452;59.418;17.962;2022-12-18T02:56:17;17.27;;;9.93;;
70832;SDS011;58452;59.418;17.962;2022-12-18T02:58:47;20.70;;;11.70;;
70832;SDS011;58452;59.418;17.962;2022-12-18T03:07:28;17.80;;;10.10;;
70832;SDS011;58452;59.418;17.962;2022-12-18T03:10:01;23.92;;;11.98;;
70832;SDS011;58452;59.418;17.962;2022-12-18T03:12:29;16.75;;;9.82;;
70832;SDS011;58452;59.418;17.962;2022-12-18T03:15:04;16.30;;;10.05;;
70832;SDS011;58452;59.418;17.962;2022-12-18T03:17:44;17.50;;;10.07;;
70832;SDS011;58452;59.418;17.962;2022-12-18T03:20:17;18.98;;;11.45;;
70832;SDS011;58452;59.418;17.962;2022-12-18T03:22:46;19.75;;;12.23;;
70832;SDS011;58452;59.418;17.962;2022-12-18T03:25:16;16.33;;;9.25;;
70832;SDS011;58452;59.418;17.962;2022-12-18T03:27:48;20.67;;;8.30;;
70832;SDS011;58452;59.418;17.962;2022-12-18T03:30:16;16.65;;;9.45;;
70832;SDS011;58452;59.418;17.962;2022-12-18T03:32:52;16.88;;;9.07;;
70832;SDS011;58452;59.418;17.962;2022-12-18T03:35:24;18.50;;;9.05;;
70832;SDS011;58452;59.418;17.962;2022-12-18T03:37:53;15.57;;;8.38;;
70832;SDS011;58452;59.418;17.962;2022-12-18T03:40:20;14.35;;;8.70;;
70832;SDS011;58452;59.418;17.962;2022-12-18T03:42:55;16.45;;;8.80;;
70832;SDS011;58452;59.418;17.962;2022-12-18T03:45:32;19.13;;;9.55;;
70832;SDS011;58452;59.418;17.962;2022-12-18T03:48:07;54.42;;;11.50;;
70832;SDS011;58452;59.418;17.962;2022-12-18T03:54:11;13.98;;;8.45;;
70832;SDS011;58452;59.418;17.962;2022-12-18T03:56:23;17.17;;;9.85;;
70832;SDS011;58452;59.418;17.962;2022-12-18T03:58:54;14.50;;;8.45;;
70832;SDS011;58452;59.418;17.962;2022-12-18T04:01:22;13.55;;;8.45;;
70832;SDS011;58452;59.418;17.962;2022-12-18T04:03:54;17.85;;;10.95;;
70832;SDS011;58452;59.418;17.962;2022-12-18T04:06:21;18.58;;;8.90;;
70832;SDS011;58452;59.418;17.962;2022-12-18T04:08:48;14.30;;;8.75;;
70832;SDS011;58452;59.418;17.962;2022-12-18T04:11:14;14.90;;;10.32;;
70832;SDS011;58452;59.418;17.962;2022-12-18T04:13:41;15.57;;;8.60;;
70832;SDS011;58452;59.418;17.962;2022-12-18T04:16:07;24.25;;;11.43;;
70832;SDS011;58452;59.418;17.962;2022-12-18T04:18:34;25.10;;;9.57;;
70832;SDS011;58452;59.418;17.962;2022-12-18T04:21:00;17.02;;;9.13;;
70832;SDS011;58452;59.418;17.962;2022-12-18T04:23:26;14.30;;;8.75;;
70832;SDS011;58452;59.418;17.962;2022-12-18T04:25:51;13.88;;;8.45;;
70832;SDS011;58452;59.418;17.962;2022-12-18T04:28:17;15.68;;;9.82;;
70832;SDS011;58452;59.418;17.962;2022-12-18T04:30:43;15.90;;;8.80;;
70832;SDS011;58452;59.418;17.962;2022-12-18T04:33:11;13.85;;;9.23;;
70832;SDS011;58452;59.418;17.962;2022-12-18T04:35:38;15.35;;;9.18;;
70832;SDS011;58452;59.418;17.962;2022-12-18T04:38:05;19.88;;;9.00;;
70832;SDS011;58452;59.418;17.962;2022-12-18T04:40:34;14.85;;;8.85;;
70832;SDS011;58452;59.418;17.962;2022-12-18T04:43:00;15.40;;;9.43;;
70832;SDS011;58452;59.418;17.962;2022-12-18T04:45:26;13.30;;;8.63;;
70832;SDS011;58452;59.418;17.962;2022-12-18T04:47:51;14.23;;;8.82;;
70832;SDS011;58452;59.418;17.962;2022-12-18T04:50:16;16.70;;;7.80;;
70832;SDS011;58452;59.418;17.962;2022-12-18T04:52:42;17.13;;;8.75;;
70832;SDS011;58452;59.418;17.962;2022-12-18T04:55:07;14.45;;;7.55;;
70832;SDS011;58452;59.418;17.962;2022-12-18T04:57:33;14.52;;;8.20;;
70832;SDS011;58452;59.418;17.962;2022-12-18T04:59:58;18.60;;;10.13;;
70832;SDS011;58452;59.418;17.962;2022-12-18T05:02:24;13.63;;;8.18;;
70832;SDS011;58452;59.418;17.962;2022-12-18T05:04:49;14.20;;;7.32;;
70832;SDS011;58452;59.418;17.962;2022-12-18T05:07:15;14.27;;;7.32;;
70832;SDS011;58452;59.418;17.962;2022-12-18T05:09:40;15.77;;;8.10;;
70832;SDS011;58452;59.418;17.962;2022-12-18T05:12:05;15.52;;;8.95;;
70832;SDS011;58452;59.418;17.962;2022-12-18T05:14:31;13.70;;;8.18;;
70832;SDS011;58452;59.418;17.962;2022-12-18T05:16:56;13.82;;;7.80;;
70832;SDS011;58452;59.418;17.962;2022-12-18T05:19:22;12.32;;;7.68;;
70832;SDS011;58452;59.418;17.962;2022-12-18T05:21:47;13.63;;;7.82;;
70832;SDS011;58452;59.418;17.962;2022-12-18T05:24:13;15.13;;;8.80;;
70832;SDS011;58452;59.418;17.962;2022-12-18T05:26:38;15.70;;;7.15;;
70832;SDS011;58452;59.418;17.962;2022-12-18T05:29:04;14.48;;;8.23;;
70832;SDS011;58452;59.418;17.962;2022-12-18T05:31:29;15.30;;;8.27;;
70832;SDS011;58452;59.418;17.962;2022-12-18T05:33:55;13.38;;;7.07;;
70832;SDS011;58452;59.418;17.962;2022-12-18T05:36:20;17.25;;;9.73;;
70832;SDS011;58452;59.418;17.962;2022-12-18T05:38:45;12.38;;;8.02;;
70832;SDS011;58452;59.418;17.962;2022-12-18T05:41:11;15.73;;;8.40;;
70832;SDS011;58452;59.418;17.962;2022-12-18T05:43:38;15.88;;;8.45;;
70832;SDS011;58452;59.418;17.962;2022-12-18T05:46:05;15.88;;;8.05;;
70832;SDS011;58452;59.418;17.962;2022-12-18T05:48:31;13.20;;;7.95;;
70832;SDS011;58452;59.418;17.962;2022-12-18T05:51:02;15.18;;;8.93;;
70832;SDS011;58452;59.418;17.962;2022-12-18T05:53:30;15.05;;;8.60;;
70832;SDS011;58452;59.418;17.962;2022-12-18T05:55:59;14.57;;;8.98;;
70832;SDS011;58452;59.418;17.962;2022-12-18T05:58:25;14.98;;;7.32;;
70832;SDS011;58452;59.418;17.962;2022-12-18T06:00:50;13.70;;;7.75;;
70832;SDS011;58452;59.418;17.962;2022-12-18T06:03:16;13.82;;;7.38;;
70832;SDS011;58452;59.418;17.962;2022-12-18T06:05:43;11.48;;;7.15;;
70832;SDS011;58452;59.418;17.962;2022-12-18T06:08:10;14.20;;;8.98;;
70832;SDS011;58452;59.418;17.962;2022-12-18T06:10:36;13.70;;;7.88;;
70832;SDS011;58452;59.418;17.962;2022-12-18T06:13:03;14.23;;;7.22;;
70832;SDS011;58452;59.418;17.962;2022-12-18T06:15:29;19.23;;;9.80;;
70832;SDS011;58452;59.418;17.962;2022-12-18T06:17:54;15.25;;;8.18;;
70832;SDS011;58452;59.418;17.962;2022-12-18T06:20:20;14.07;;;8.52;;
70832;SDS011;58452;59.418;17.962;2022-12-18T06:22:45;15.02;;;8.45;;
70832;SDS011;58452;59.418;17.962;2022-12-18T06:25:11;13.98;;;7.03;;
70832;SDS011;58452;59.418;17.962;2022-12-18T06:27:36;17.90;;;7.70;;
70832;SDS011;58452;59.418;17.962;2022-12-18T06:30:02;13.75;;;7.50;;
70832;SDS011;58452;59.418;17.962;2022-12-18T06:32:29;16.38;;;9.18;;
70832;SDS011;58452;59.418;17.962;2022-12-18T06:34:55;13.30;;;7.68;;
70832;SDS011;58452;59.418;17.962;2022-12-18T06:37:21;14.63;;;8.15;;
70832;SDS011;58452;59.418;17.962;2022-12-18T06:39:49;13.70;;;7.38;;
70832;SDS011;58452;59.418;17.962;2022-12-18T06:42:15;16.38;;;8.10;;
70832;SDS011;58452;59.418;17.962;2022-12-18T06:44:40;15.85;;;8.18;;
70832;SDS011;58452;59.418;17.962;2022-12-18T06:47:06;13.35;;;7.75;;
70832;SDS011;58452;59.418;17.962;2022-12-18T06:49:31;12.98;;;7.82;;
70832;SDS011;58452;59.418;17.962;2022-12-18T06:51:56;13.27;;;7.45;;
70832;SDS011;58452;59.418;17.962;2022-12-18T06:54:22;13.48;;;7.65;;
70832;SDS011;58452;59.418;17.962;2022-12-18T06:56:47;17.17;;;8.30;;
70832;SDS011;58452;59.418;17.962;2022-12-18T06:59:13;15.43;;;8.55;;
70832;SDS011;58452;59.418;17.962;2022-12-18T07:01:39;18.05;;;8.13;;
70832;SDS011;58452;59.418;17.962;2022-12-18T07:04:05;14.63;;;7.22;;
70832;SDS011;58452;59.418;17.962;2022-12-18T07:06:30;16.15;;;7.93;;
70832;SDS011;58452;59.418;17.962;2022-12-18T07:08:56;14.45;;;7.82;;
70832;SDS011;58452;59.418;17.962;2022-12-18T07:11:21;15.63;;;7.68;;
70832;SDS011;58452;59.418;17.962;2022-12-18T07:13:47;13.93;;;9.18;;
70832;SDS011;58452;59.418;17.962;2022-12-18T07:16:16;11.05;;;6.97;;
70832;SDS011;58452;59.418;17.962;2022-12-18T07:18:44;13.57;;;7.68;;
70832;SDS011;58452;59.418;17.962;2022-12-18T07:21:12;15.82;;;9.75;;
70832;SDS011;58452;59.418;17.962;2022-12-18T07:23:39;11.50;;;6.47;;
70832;SDS011;58452;59.418;17.962;2022-12-18T07:26:09;15.30;;;8.48;;
70832;SDS011;58452;59.418;17.962;2022-12-18T07:28:36;14.13;;;7.90;;
70832;SDS011;58452;59.418;17.962;2022-12-18T07:31:03;13.00;;;7.60;;
70832;SDS011;58452;59.418;17.962;2022-12-18T07:33:34;15.43;;;8.70;;
70832;SDS011;58452;59.418;17.962;2022-12-18T07:36:00;14.88;;;8.27;;
70832;SDS011;58452;59.418;17.962;2022-12-18T07:38:29;13.27;;;8.32;;
70832;SDS011;58452;59.418;17.962;2022-12-18T07:41:00;12.20;;;8.07;;
70832;SDS011;58452;59.418;17.962;2022-12-18T07:43:29;15.50;;;9.05;;
70832;SDS011;58452;59.418;17.962;2022-12-18T07:45:55;15.63;;;8.63;;
70832;SDS011;58452;59.418;17.962;2022-12-18T07:48:20;20.08;;;11.52;;
70832;SDS011;58452;59.418;17.962;2022-12-18T07:50:46;15.10;;;8.95;;
70832;SDS011;58452;59.418;17.962;2022-12-18T07:53:11;20.17;;;9.05;;
70832;SDS011;58452;59.418;17.962;2022-12-18T07:55:36;13.77;;;9.05;;
70832;SDS011;58452;59.418;17.962;2022-12-18T07:58:02;14.60;;;9.05;;
70832;SDS011;58452;59.418;17.962;2022-12-18T08:00:29;15.43;;;8.75;;
70832;SDS011;58452;59.418;17.962;2022-12-18T08:02:55;17.13;;;10.43;;
70832;SDS011;58452;59.418;17.962;2022-12-18T08:05:20;17.90;;;9.80;;
70832;SDS011;58452;59.418;17.962;2022-12-18T08:07:46;17.45;;;9.68;;
70832;SDS011;58452;59.418;17.962;2022-12-18T08:10:11;22.35;;;10.60;;
70832;SDS011;58452;59.418;17.962;2022-12-18T08:12:37;17.77;;;11.30;;
70832;SDS011;58452;59.418;17.962;2022-12-18T08:15:03;22.30;;;10.77;;
70832;SDS011;58452;59.418;17.962;2022-12-18T08:17:28;19.77;;;11.65;;
70832;SDS011;58452;59.418;17.962;2022-12-18T08:19:54;18.13;;;11.15;;
70832;SDS011;58452;59.418;17.962;2022-12-18T08:22:19;20.40;;;11.82;;
70832;SDS011;58452;59.418;17.962;2022-12-18T08:24:45;17.45;;;9.55;;
70832;SDS011;58452;59.418;17.962;2022-12-18T08:27:10;19.30;;;9.95;;
70832;SDS011;58452;59.418;17.962;2022-12-18T08:29:36;16.60;;;10.57;;
70832;SDS011;58452;59.418;17.962;2022-12-18T08:32:01;20.25;;;10.43;;
70832;SDS011;58452;59.418;17.962;2022-12-18T08:34:27;18.88;;;11.52;;
70832;SDS011;58452;59.418;17.962;2022-12-18T08:36:52;16.05;;;10.52;;
70832;SDS011;58452;59.418;17.962;2022-12-18T08:39:18;22.00;;;10.40;;
70832;SDS011;58452;59.418;17.962;2022-12-18T08:41:43;18.98;;;9.75;;
70832;SDS011;58452;59.418;17.962;2022-12-18T08:44:28;18.95;;;11.65;;
70832;SDS011;58452;59.418;17.962;2022-12-18T08:47:03;23.08;;;11.23;;
70832;SDS011;58452;59.418;17.962;2022-12-18T08:49:29;14.55;;;9.63;;
70832;SDS011;58452;59.418;17.962;2022-12-18T08:51:55;17.80;;;9.45;;
70832;SDS011;58452;59.418;17.962;2022-12-18T08:54:24;18.98;;;11.63;;
70832;SDS011;58452;59.418;17.962;2022-12-18T08:56:50;18.55;;;11.75;;
70832;SDS011;58452;59.418;17.962;2022-12-18T08:59:16;17.40;;;9.93;;
70832;SDS011;58452;59.418;17.962;2022-12-18T09:01:42;20.58;;;10.77;;
70832;SDS011;58452;59.418;17.962;2022-12-18T09:04:08;18.42;;;9.98;;
70832;SDS011;58452;59.418;17.962;2022-12-18T09:06:34;16.48;;;10.60;;
70832;SDS011;58452;59.418;17.962;2022-12-18T09:09:00;17.20;;;10.35;;
70832;SDS011;58452;59.418;17.962;2022-12-18T09:11:26;14.20;;;9.98;;
70832;SDS011;58452;59.418;17.962;2022-12-18T09:13:53;17.33;;;10.57;;
70832;SDS011;58452;59.418;17.962;2022-12-18T09:16:20;17.23;;;9.57;;
70832;SDS011;58452;59.418;17.962;2022-12-18T09:18:46;16.08;;;10.20;;
70832;SDS011;58452;59.418;17.962;2022-12-18T09:21:13;17.95;;;9.90;;
70832;SDS011;58452;59.418;17.962;2022-12-18T09:23:41;18.83;;;10.40;;
70832;SDS011;58452;59.418;17.962;2022-12-18T09:26:06;17.55;;;10.02;;
70832;SDS011;58452;59.418;17.962;2022-12-18T09:28:32;17.73;;;10.52;;
70832;SDS011;58452;59.418;17.962;2022-12-18T09:30:58;14.75;;;9.10;;
70832;SDS011;58452;59.418;17.962;2022-12-18T09:33:23;18.00;;;10.07;;
70832;SDS011;58452;59.418;17.962;2022-12-18T09:35:49;13.98;;;10.27;;
70832;SDS011;58452;59.418;17.962;2022-12-18T09:38:15;19.13;;;9.32;;
70832;SDS011;58452;59.418;17.962;2022-12-18T09:40:47;17.77;;;9.45;;
70832;SDS011;58452;59.418;17.962;2022-12-18T09:43:17;14.30;;;8.70;;
70832;SDS011;58452;59.418;17.962;2022-12-18T09:45:56;15.40;;;9.32;;
70832;SDS011;58452;59.418;17.962;2022-12-18T09:48:36;18.73;;;9.80;;
70832;SDS011;58452;59.418;17.962;2022-12-18T09:51:09;16.92;;;10.45;;
70832;SDS011;58452;59.418;17.962;2022-12-18T09:53:40;18.65;;;10.43;;
70832;SDS011;58452;59.418;17.962;2022-12-18T09:56:10;17.80;;;8.52;;
70832;SDS011;58452;59.418;17.962;2022-12-18T10:01:20;15.77;;;9.43;;
70832;SDS011;58452;59.418;17.962;2022-12-18T10:03:47;19.02;;;10.52;;
70832;SDS011;58452;59.418;17.962;2022-12-18T10:06:15;18.50;;;11.07;;
70832;SDS011;58452;59.418;17.962;2022-12-18T10:08:51;17.92;;;8.90;;
70832;SDS011;58452;59.418;17.962;2022-12-18T10:20:25;19.65;;;8.95;;
70832;SDS011;58452;59.418;17.962;2022-12-18T10:28:15;16.58;;;10.23;;
70832;SDS011;58452;59.418;17.962;2022-12-18T10:30:43;19.58;;;10.65;;
70832;SDS011;58452;59.418;17.962;2022-12-18T10:33:19;15.98;;;9.93;;
70832;SDS011;58452;59.418;17.962;2022-12-18T10:35:48;18.05;;;10.52;;
70832;SDS011;58452;59.418;17.962;2022-12-18T10:43:22;23.02;;;11.32;;
70832;SDS011;58452;59.418;17.962;2022-12-18T10:48:26;15.05;;;9.35;;
70832;SDS011;58452;59.418;17.962;2022-12-18T10:50:52;17.45;;;9.93;;
70832;SDS011;58452;59.418;17.962;2022-12-18T10:53:22;17.17;;;9.68;;
70832;SDS011;58452;59.418;17.962;2022-12-18T10:55:53;17.05;;;9.80;;
70832;SDS011;58452;59.418;17.962;2022-12-18T11:03:58;14.82;;;9.48;;
70832;SDS011;58452;59.418;17.962;2022-12-18T11:06:25;18.48;;;10.13;;
70832;SDS011;58452;59.418;17.962;2022-12-18T11:09:01;14.48;;;9.32;;
70832;SDS011;58452;59.418;17.962;2022-12-18T11:11:47;18.17;;;10.73;;
70832;SDS011;58452;59.418;17.962;2022-12-18T11:14:20;19.50;;;9.45;;
70832;SDS011;58452;59.418;17.962;2022-12-18T11:17:16;17.60;;;10.23;;
70832;SDS011;58452;59.418;17.962;2022-12-18T11:19:44;19.23;;;10.18;;
70832;SDS011;58452;59.418;17.962;2022-12-18T11:22:19;17.60;;;11.00;;
70832;SDS011;58452;59.418;17.962;2022-12-18T11:25:20;17.13;;;10.98;;
70832;SDS011;58452;59.418;17.962;2022-12-18T11:27:41;16.83;;;10.80;;
70832;SDS011;58452;59.418;17.962;2022-12-18T11:30:23;19.27;;;10.57;;
70832;SDS011;58452;59.418;17.962;2022-12-18T11:41:02;19.95;;;11.27;;
70832;SDS011;58452;59.418;17.962;2022-12-18T11:43:50;20.73;;;9.75;;
70832;SDS011;58452;59.418;17.962;2022-12-18T11:46:36;17.25;;;9.23;;
70832;SDS011;58452;59.418;17.962;2022-12-18T11:49:12;17.15;;;10.00;;
70832;SDS011;58452;59.418;17.962;2022-12-18T11:51:49;15.10;;;9.13;;
70832;SDS011;58452;59.418;17.962;2022-12-18T11:54:20;21.38;;;11.77;;
70832;SDS011;58452;59.418;17.962;2022-12-18T11:56:47;19.15;;;9.65;;
70832;SDS011;58452;59.418;17.962;2022-12-18T12:24:52;14.10;;;8.93;;
70832;SDS011;58452;59.418;17.962;2022-12-18T12:27:54;14.50;;;8.15;;
70832;SDS011;58452;59.418;17.962;2022-12-18T12:39:05;19.20;;;10.10;;
70832;SDS011;58452;59.418;17.962;2022-12-18T12:41:33;19.65;;;8.80;;
70832;SDS011;58452;59.418;17.962;2022-12-18T12:44:22;28.23;;;11.40;;
70832;SDS011;58452;59.418;17.962;2022-12-18T12:46:55;16.38;;;9.80;;
70832;SDS011;58452;59.418;17.962;2022-12-18T12:49:29;14.85;;;9.65;;
70832;SDS011;58452;59.418;17.962;2022-12-18T12:52:00;17.20;;;9.32;;
70832;SDS011;58452;59.418;17.962;2022-12-18T12:54:35;14.85;;;7.80;;
70832;SDS011;58452;59.418;17.962;2022-12-18T13:05:58;15.15;;;8.00;;
70832;SDS011;58452;59.418;17.962;2022-12-18T13:08:03;11.05;;;7.75;;
70832;SDS011;58452;59.418;17.962;2022-12-18T13:10:39;16.15;;;9.07;;
70832;SDS011;58452;59.418;17.962;2022-12-18T13:13:12;9.73;;;7.20;;
70832;SDS011;58452;59.418;17.962;2022-12-18T13:15:42;13.30;;;6.63;;
70832;SDS011;58452;59.418;17.962;2022-12-18T13:18:27;19.30;;;9.68;;
70832;SDS011;58452;59.418;17.962;2022-12-18T13:25:45;10.57;;;7.05;;
70832;SDS011;58452;59.418;17.962;2022-12-18T13:30:41;17.65;;;7.65;;
70832;SDS011;58452;59.418;17.962;2022-12-18T13:38:45;16.35;;;7.40;;
70832;SDS011;58452;59.418;17.962;2022-12-18T13:43:53;11.98;;;7.20;;
70832;SDS011;58452;59.418;17.962;2022-12-18T13:46:29;15.50;;;5.97;;
70832;SDS011;58452;59.418;17.962;2022-12-18T13:51:39;14.00;;;7.05;;
70832;SDS011;58452;59.418;17.962;2022-12-18T13:57:00;12.05;;;6.38;;
70832;SDS011;58452;59.418;17.962;2022-12-18T13:59:32;15.65;;;6.88;;
70832;SDS011;58452;59.418;17.962;2022-12-18T14:02:12;20.23;;;7.88;;
70832;SDS011;58452;59.418;17.962;2022-12-18T14:04:39;11.20;;;6.10;;
70832;SDS011;58452;59.418;17.962;2022-12-18T14:12:27;19.95;;;6.78;;
70832;SDS011;58452;59.418;17.962;2022-12-18T14:17:55;19.20;;;7.13;;
70832;SDS011;58452;59.418;17.962;2022-12-18T14:20:24;12.40;;;5.55;;
70832;SDS011;58452;59.418;17.962;2022-12-18T14:22:51;19.80;;;6.97;;
70832;SDS011;58452;59.418;17.962;2022-12-18T14:25:21;19.85;;;7.40;;
70832;SDS011;58452;59.418;17.962;2022-12-18T14:30:36;27.02;;;8.52;;
70832;SDS011;58452;59.418;17.962;2022-12-18T14:33:36;14.50;;;5.10;;
70832;SDS011;58452;59.418;17.962;2022-12-18T14:36:03;13.68;;;4.97;;
70832;SDS011;58452;59.418;17.962;2022-12-18T14:38:30;9.35;;;4.68;;
70832;SDS011;58452;59.418;17.962;2022-12-18T14:41:10;9.35;;;4.45;;
70832;SDS011;58452;59.418;17.962;2022-12-18T14:43:39;7.75;;;4.32;;
70832;SDS011;58452;59.418;17.962;2022-12-18T14:46:06;10.80;;;5.22;;
70832;SDS011;58452;59.418;17.962;2022-12-18T14:48:50;11.73;;;4.45;;
70832;SDS011;58452;59.418;17.962;2022-12-18T14:51:17;13.15;;;4.30;;
70832;SDS011;58452;59.418;17.962;2022-12-18T14:54:03;11.80;;;5.40;;
70832;SDS011;58452;59.418;17.962;2022-12-18T14:56:35;13.02;;;4.47;;
70832;SDS011;58452;59.418;17.962;2022-12-18T14:59:13;10.32;;;3.80;;
70832;SDS011;58452;59.418;17.962;2022-12-18T15:01:46;11.68;;;4.72;;
70832;SDS011;58452;59.418;17.962;2022-12-18T15:04:40;8.35;;;4.28;;
70832;SDS011;58452;59.418;17.962;2022-12-18T15:12:39;13.23;;;4.57;;
70832;SDS011;58452;59.418;17.962;2022-12-18T15:20:31;11.05;;;4.28;;
70832;SDS011;58452;59.418;17.962;2022-12-18T15:23:04;11.98;;;3.35;;
70832;SDS011;58452;59.418;17.962;2022-12-18T15:28:01;6.78;;;3.08;;
70832;SDS011;58452;59.418;17.962;2022-12-18T15:30:27;10.20;;;3.95;;
70832;SDS011;58452;59.418;17.962;2022-12-18T15:33:16;6.07;;;3.25;;
70832;SDS011;58452;59.418;17.962;2022-12-18T15:35:47;6.28;;;3.25;;
70832;SDS011;58452;59.418;17.962;2022-12-18T15:38:21;10.68;;;3.63;;
70832;SDS011;58452;59.418;17.962;2022-12-18T15:40:46;9.82;;;2.97;;
70832;SDS011;58452;59.418;17.962;2022-12-18T15:43:12;10.30;;;2.90;;
70832;SDS011;58452;59.418;17.962;2022-12-18T15:45:56;16.33;;;3.60;;
70832;SDS011;58452;59.418;17.962;2022-12-18T15:48:22;14.35;;;5.15;;
70832;SDS011;58452;59.418;17.962;2022-12-18T15:50:49;9.55;;;3.30;;
70832;SDS011;58452;59.418;17.962;2022-12-18T15:53:17;15.15;;;3.38;;
70832;SDS011;58452;59.418;17.962;2022-12-18T15:55:43;8.70;;;3.28;;
70832;SDS011;58452;59.418;17.962;2022-12-18T15:58:27;12.52;;;4.28;;
70832;SDS011;58452;59.418;17.962;2022-12-18T16:00:52;7.10;;;2.92;;
70832;SDS011;58452;59.418;17.962;2022-12-18T16:03:20;7.75;;;2.72;;
70832;SDS011;58452;59.418;17.962;2022-12-18T16:05:46;8.40;;;2.50;;
70832;SDS011;58452;59.418;17.962;2022-12-18T16:08:12;8.45;;;3.28;;
70832;SDS011;58452;59.418;17.962;2022-12-18T16:10:40;10.60;;;3.33;;
70832;SDS011;58452;59.418;17.962;2022-12-18T16:13:08;13.43;;;5.30;;
70832;SDS011;58452;59.418;17.962;2022-12-18T16:15:35;6.32;;;2.22;;
70832;SDS011;58452;59.418;17.962;2022-12-18T16:18:00;10.20;;;2.45;;
70832;SDS011;58452;59.418;17.962;2022-12-18T16:20:26;9.45;;;2.58;;
70832;SDS011;58452;59.418;17.962;2022-12-18T16:22:51;9.95;;;3.30;;
70832;SDS011;58452;59.418;17.962;2022-12-18T16:25:22;10.32;;;2.53;;
70832;SDS011;58452;59.418;17.962;2022-12-18T16:27:49;6.97;;;3.35;;
70832;SDS011;58452;59.418;17.962;2022-12-18T16:30:16;6.45;;;2.60;;
70832;SDS011;58452;59.418;17.962;2022-12-18T16:32:43;11.65;;;2.90;;
70832;SDS011;58452;59.418;17.962;2022-12-18T16:35:10;9.43;;;2.75;;
70832;SDS011;58452;59.418;17.962;2022-12-18T16:37:36;9.65;;;2.97;;
70832;SDS011;58452;59.418;17.962;2022-12-18T16:40:02;6.22;;;2.90;;
70832;SDS011;58452;59.418;17.962;2022-12-18T16:42:28;10.30;;;2.35;;
70832;SDS011;58452;59.418;17.962;2022-12-18T16:44:53;7.63;;;2.58;;
70832;SDS011;58452;59.418;17.962;2022-12-18T16:47:19;5.88;;;1.83;;
70832;SDS011;58452;59.418;17.962;2022-12-18T16:49:44;9.38;;;2.20;;
70832;SDS011;58452;59.418;17.962;2022-12-18T16:52:10;14.55;;;3.47;;
70832;SDS011;58452;59.418;17.962;2022-12-18T16:54:35;11.60;;;3.67;;